createdAt,value
2023-05-23T00:01:40.025Z,19.30
2023-05-23T00:04:10.299Z,19.30
2023-05-23T00:06:38.853Z,19.30
2023-05-23T00:09:06.215Z,19.30
2023-05-23T00:11:33.117Z,19.20
2023-05-23T00:14:01.343Z,19.10
2023-05-23T00:16:28.758Z,19.10
2023-05-23T00:18:57.779Z,19.10
2023-05-23T00:21:24.750Z,19.10
2023-05-23T00:23:51.544Z,19.10
2023-05-23T00:26:18.358Z,19.10
2023-05-23T00:28:45.107Z,19.20
2023-05-23T00:31:11.917Z,19.20
2023-05-23T00:33:38.825Z,19.20
2023-05-23T00:36:06.190Z,19.10
2023-05-23T00:38:33.108Z,19.10
2023-05-23T00:41:00.259Z,19.00
2023-05-23T00:43:27.436Z,19.00
2023-05-23T00:45:54.365Z,19.00
2023-05-23T00:48:21.537Z,19.00
2023-05-23T00:50:48.470Z,19.10
2023-05-23T00:53:15.530Z,19.10
2023-05-23T00:55:42.787Z,19.10
2023-05-23T00:58:10.450Z,19.10
2023-05-23T01:00:38.729Z,19.10
2023-05-23T01:03:05.686Z,19.10
2023-05-23T01:05:32.523Z,19.10
2023-05-23T01:07:59.736Z,19.10
2023-05-23T01:10:28.262Z,19.10
2023-05-23T01:13:04.417Z,19.10
2023-05-23T01:15:38.601Z,19.10
2023-05-23T01:18:08.661Z,19.10
2023-05-23T01:20:40.985Z,19.10
2023-05-23T01:23:25.086Z,19.00
2023-05-23T01:26:23.442Z,19.00
2023-05-23T01:28:56.000Z,18.90
2023-05-23T01:31:26.324Z,18.80
2023-05-23T01:33:54.505Z,18.80
2023-05-23T01:36:21.754Z,18.80
2023-05-23T01:38:48.582Z,18.90
2023-05-23T01:41:15.512Z,18.90
2023-05-23T01:43:42.540Z,18.90
2023-05-23T01:46:11.142Z,18.90
2023-05-23T01:48:38.813Z,18.80
2023-05-23T01:51:06.088Z,18.90
2023-05-23T01:53:34.292Z,18.90
2023-05-23T01:56:03.568Z,18.90
2023-05-23T01:58:30.736Z,18.90
2023-05-23T02:00:57.790Z,18.80
2023-05-23T02:03:24.818Z,18.80
2023-05-23T02:05:51.714Z,18.90
2023-05-23T02:08:18.535Z,18.80
2023-05-23T02:10:45.349Z,18.80
2023-05-23T02:13:12.287Z,18.80
2023-05-23T02:15:39.290Z,18.80
2023-05-23T02:18:06.702Z,18.80
2023-05-23T02:20:33.650Z,18.80
2023-05-23T02:23:00.400Z,18.80
2023-05-23T02:25:27.298Z,18.80
2023-05-23T02:27:54.164Z,18.80
2023-05-23T02:30:20.998Z,18.80
2023-05-23T02:32:47.873Z,18.80
2023-05-23T02:35:14.755Z,18.80
2023-05-23T02:37:41.606Z,18.90
2023-05-23T02:40:08.982Z,19.00
2023-05-23T02:42:35.901Z,19.00
2023-05-23T02:45:02.792Z,19.00
2023-05-23T02:47:29.669Z,19.00
2023-05-23T02:49:56.569Z,19.00
2023-05-23T02:52:23.764Z,18.90
2023-05-23T02:54:50.577Z,18.90
2023-05-23T02:57:18.129Z,18.90
2023-05-23T02:59:45.023Z,18.90
2023-05-23T03:02:12.133Z,18.90
2023-05-23T03:04:39.210Z,18.90
2023-05-23T03:07:11.472Z,19.00
2023-05-23T03:09:43.982Z,19.00
2023-05-23T03:12:11.180Z,19.10
2023-05-23T03:14:38.181Z,19.10
2023-05-23T03:17:05.311Z,19.10
2023-05-23T03:19:34.225Z,19.10
2023-05-23T03:22:02.599Z,19.10
2023-05-23T03:24:29.522Z,19.10
2023-05-23T03:26:56.683Z,19.10
2023-05-23T03:29:23.622Z,19.10
2023-05-23T03:31:50.808Z,19.20
2023-05-23T03:34:18.069Z,19.20
2023-05-23T03:36:45.226Z,19.20
2023-05-23T03:39:12.529Z,19.20
2023-05-23T03:41:39.500Z,19.20
2023-05-23T03:44:06.797Z,19.30
2023-05-23T03:46:33.859Z,19.30
2023-05-23T03:49:00.883Z,19.40
2023-05-23T03:51:28.443Z,19.40
2023-05-23T03:53:55.475Z,19.50
2023-05-23T03:56:23.030Z,19.50
2023-05-23T03:58:49.971Z,19.50
2023-05-23T04:01:16.909Z,19.60
2023-05-23T04:03:44.039Z,19.60
2023-05-23T04:06:12.313Z,19.60
2023-05-23T04:08:42.279Z,19.60
2023-05-23T04:11:09.322Z,19.70
2023-05-23T04:13:37.408Z,19.60
2023-05-23T04:16:06.028Z,19.60
2023-05-23T04:18:39.405Z,19.70
2023-05-23T04:21:06.627Z,19.70
2023-05-23T04:23:33.516Z,19.70
2023-05-23T04:26:00.576Z,19.70
2023-05-23T04:28:27.917Z,19.80
2023-05-23T04:30:54.860Z,19.80
2023-05-23T04:33:22.111Z,19.80
2023-05-23T04:35:49.473Z,19.80
2023-05-23T04:38:17.196Z,19.80
2023-05-23T04:40:44.056Z,19.90
2023-05-23T04:43:14.487Z,19.90
2023-05-23T04:45:42.484Z,19.90
2023-05-23T04:48:09.635Z,19.90
2023-05-23T04:50:37.996Z,19.90
2023-05-23T04:53:04.902Z,19.90
2023-05-23T04:55:32.257Z,19.90
2023-05-23T04:58:00.226Z,19.90
2023-05-23T05:00:27.250Z,20.00
2023-05-23T05:02:54.059Z,20.00
2023-05-23T05:05:20.801Z,20.00
2023-05-23T05:07:47.617Z,19.90
2023-05-23T05:10:17.062Z,20.00
2023-05-23T05:12:46.889Z,20.00
2023-05-23T05:15:13.989Z,20.00
2023-05-23T05:17:41.543Z,20.00
2023-05-23T05:20:09.297Z,20.00
2023-05-23T05:22:36.996Z,20.10
2023-05-23T05:25:06.594Z,20.10
2023-05-23T05:27:34.460Z,20.10
2023-05-23T05:30:05.124Z,20.10
2023-05-23T05:32:33.745Z,20.10
2023-05-23T05:35:04.186Z,20.10
2023-05-23T05:37:31.136Z,20.20
2023-05-23T05:39:59.136Z,20.20
2023-05-23T05:42:26.111Z,20.20
2023-05-23T05:44:52.930Z,20.20
2023-05-23T05:47:20.119Z,20.20
2023-05-23T05:49:47.060Z,20.20
2023-05-23T05:52:13.927Z,20.20
2023-05-23T05:54:40.940Z,20.20
2023-05-23T05:57:07.770Z,20.20
2023-05-23T05:59:34.599Z,20.20
2023-05-23T06:02:01.659Z,20.20
2023-05-23T06:04:28.791Z,20.20
2023-05-23T06:06:55.737Z,20.20
2023-05-23T06:09:22.752Z,20.20
2023-05-23T06:11:49.623Z,20.20
2023-05-23T06:14:16.441Z,20.20
2023-05-23T06:16:44.210Z,20.20
2023-05-23T06:19:11.133Z,20.30
2023-05-23T06:21:37.996Z,20.30
2023-05-23T06:24:05.394Z,20.30
2023-05-23T06:26:33.578Z,20.30
2023-05-23T06:29:00.476Z,20.30
2023-05-23T06:31:27.302Z,20.30
2023-05-23T06:33:54.570Z,20.40
2023-05-23T06:36:21.601Z,20.40
2023-05-23T06:38:48.383Z,20.50
2023-05-23T06:41:15.214Z,20.50
2023-05-23T06:43:42.116Z,20.50
2023-05-23T06:46:08.978Z,20.50
2023-05-23T06:48:35.822Z,20.60
2023-05-23T06:51:02.801Z,20.60
2023-05-23T06:53:29.730Z,20.60
2023-05-23T06:55:56.527Z,20.50
2023-05-23T06:58:25.227Z,20.50
2023-05-23T07:00:52.453Z,20.50
2023-05-23T07:03:19.356Z,20.50
2023-05-23T07:05:46.463Z,20.50
2023-05-23T07:08:13.685Z,20.50
2023-05-23T07:10:43.663Z,20.60
2023-05-23T07:13:10.611Z,20.60
2023-05-23T07:15:37.920Z,20.70
2023-05-23T07:18:05.539Z,20.70
2023-05-23T07:20:34.150Z,20.70
2023-05-23T07:23:01.041Z,20.80
2023-05-23T07:25:28.087Z,20.70
2023-05-23T07:27:55.075Z,20.80
2023-05-23T07:30:22.875Z,20.90
2023-05-23T07:32:49.889Z,20.90
2023-05-23T07:35:17.032Z,20.80
2023-05-23T07:37:45.009Z,20.80
2023-05-23T07:40:12.104Z,20.90
2023-05-23T07:42:38.990Z,20.90
2023-05-23T07:45:06.318Z,20.90
2023-05-23T07:47:33.307Z,20.80
2023-05-23T07:50:02.308Z,20.70
2023-05-23T07:52:32.759Z,20.80
2023-05-23T07:55:00.131Z,20.90
2023-05-23T07:57:27.525Z,20.90
2023-05-23T07:59:54.565Z,21.10
2023-05-23T08:02:21.527Z,21.20
2023-05-23T08:04:48.949Z,21.40
2023-05-23T08:07:18.645Z,21.50
2023-05-23T08:09:46.266Z,21.50
2023-05-23T08:12:13.072Z,21.50
2023-05-23T08:14:50.607Z,21.40
2023-05-23T08:17:18.066Z,21.30
2023-05-23T08:19:45.235Z,21.30
2023-05-23T08:22:12.226Z,21.20
2023-05-23T08:24:39.204Z,21.10
2023-05-23T08:27:08.029Z,21.00
2023-05-23T08:29:38.510Z,21.00
2023-05-23T08:32:05.759Z,21.00
2023-05-23T08:34:33.121Z,21.00
2023-05-23T08:37:00.024Z,21.00
2023-05-23T08:39:27.078Z,21.00
2023-05-23T08:41:53.944Z,21.00
2023-05-23T08:44:20.898Z,21.00
2023-05-23T08:46:49.830Z,21.10
2023-05-23T08:49:18.513Z,21.10
2023-05-23T08:51:47.261Z,21.10
2023-05-23T08:54:14.422Z,21.10
2023-05-23T08:56:43.738Z,21.00
2023-05-23T08:59:12.092Z,21.00
2023-05-23T09:01:41.775Z,21.00
2023-05-23T09:04:09.650Z,21.00
2023-05-23T09:06:36.945Z,21.00
2023-05-23T09:09:06.811Z,21.00
2023-05-23T09:11:36.737Z,20.90
2023-05-23T09:14:05.201Z,21.00
2023-05-23T09:16:35.873Z,21.00
2023-05-23T09:19:14.301Z,21.00
2023-05-23T09:21:45.416Z,21.00
2023-05-23T09:24:12.876Z,21.10
2023-05-23T09:26:39.949Z,21.10
2023-05-23T09:29:07.683Z,21.10
2023-05-23T09:31:34.869Z,21.20
2023-05-23T09:34:02.181Z,21.20
2023-05-23T09:36:30.796Z,21.30
2023-05-23T09:39:03.148Z,21.30
2023-05-23T09:41:31.549Z,21.20
2023-05-23T09:43:58.398Z,21.20
2023-05-23T09:46:30.207Z,21.20
2023-05-23T09:48:57.164Z,21.00
2023-05-23T09:51:24.703Z,21.00
2023-05-23T09:53:52.458Z,21.00
2023-05-23T09:56:19.971Z,21.00
2023-05-23T09:58:51.056Z,21.00
2023-05-23T10:01:18.284Z,21.10
2023-05-23T10:03:59.978Z,21.10
2023-05-23T10:06:42.040Z,21.10
2023-05-23T10:09:17.624Z,21.10
2023-05-23T10:12:32.191Z,21.00
2023-05-23T10:15:03.502Z,21.10
2023-05-23T10:17:54.987Z,21.10
2023-05-23T10:20:26.211Z,21.10
2023-05-23T10:22:54.332Z,21.10
2023-05-23T10:25:21.845Z,21.10
2023-05-23T10:27:51.204Z,21.20
2023-05-23T10:30:20.157Z,21.20
2023-05-23T10:32:47.516Z,21.20
2023-05-23T10:35:30.549Z,21.30
2023-05-23T10:38:34.387Z,21.30
2023-05-23T10:41:04.106Z,21.40
2023-05-23T10:43:50.034Z,21.30
2023-05-23T10:46:19.837Z,21.30
2023-05-23T10:48:46.951Z,21.30
2023-05-23T10:51:15.956Z,21.30
2023-05-23T10:53:45.029Z,21.30
2023-05-23T10:56:23.868Z,21.40
2023-05-23T10:58:56.897Z,21.50
2023-05-23T11:01:25.185Z,21.50
2023-05-23T11:03:55.722Z,21.50
2023-05-23T11:06:38.462Z,21.50
2023-05-23T11:09:25.892Z,21.30
2023-05-23T11:11:59.739Z,21.30
2023-05-23T11:14:33.773Z,21.30
2023-05-23T11:17:15.146Z,21.30
2023-05-23T11:19:58.606Z,21.30
2023-05-23T11:22:32.812Z,21.40
2023-05-23T11:25:01.392Z,21.50
2023-05-23T11:27:32.337Z,21.40
2023-05-23T11:29:59.149Z,21.50
2023-05-23T11:32:29.514Z,21.40
2023-05-23T11:34:58.859Z,21.50
2023-05-23T11:37:27.392Z,21.50
2023-05-23T11:39:54.415Z,21.40
2023-05-23T11:42:22.503Z,21.40
2023-05-23T11:44:53.034Z,21.30
2023-05-23T11:47:19.992Z,21.30
2023-05-23T11:49:48.000Z,21.30
2023-05-23T11:52:15.428Z,21.30
2023-05-23T11:54:43.562Z,21.40
2023-05-23T11:57:14.102Z,21.50
2023-05-23T11:59:41.334Z,21.50
2023-05-23T12:02:08.659Z,21.50
2023-05-23T12:04:39.258Z,21.50
2023-05-23T12:07:07.726Z,21.50
2023-05-23T12:09:43.035Z,21.60
2023-05-23T12:12:11.017Z,21.60
2023-05-23T12:14:44.544Z,21.60
2023-05-23T12:17:14.738Z,21.60
2023-05-23T12:19:47.056Z,21.60
2023-05-23T12:22:14.059Z,21.60
2023-05-23T12:24:49.385Z,21.70
2023-05-23T12:27:18.753Z,21.70
2023-05-23T12:29:52.471Z,21.70
2023-05-23T12:32:19.608Z,21.70
2023-05-23T12:34:46.624Z,21.70
2023-05-23T12:39:45.427Z,21.80
2023-05-23T12:42:12.983Z,21.90
2023-05-23T12:44:43.670Z,22.00
2023-05-23T12:47:10.799Z,22.10
2023-05-23T12:49:38.822Z,22.10
2023-05-23T12:52:06.133Z,22.20
2023-05-23T12:54:32.990Z,22.20
2023-05-23T12:56:59.823Z,22.10
2023-05-23T12:59:26.658Z,22.10
2023-05-23T13:01:54.128Z,22.10
2023-05-23T13:04:21.040Z,22.10
2023-05-23T13:06:47.979Z,22.10
2023-05-23T13:09:14.830Z,22.10
2023-05-23T13:11:41.828Z,22.10
2023-05-23T13:14:08.712Z,22.10
2023-05-23T13:16:36.425Z,22.10
2023-05-23T13:19:03.468Z,22.10
2023-05-23T13:21:31.703Z,22.10
2023-05-23T13:23:58.618Z,21.50
2023-05-23T13:26:26.221Z,22.20
2023-05-23T13:28:53.084Z,22.00
2023-05-23T13:31:20.262Z,22.00
2023-05-23T13:33:47.282Z,21.90
2023-05-23T13:36:14.085Z,22.00
2023-05-23T13:38:41.168Z,22.00
2023-05-23T13:41:08.085Z,21.90
2023-05-23T13:43:35.018Z,22.00
2023-05-23T13:46:03.047Z,21.90
2023-05-23T13:48:30.172Z,21.90
2023-05-23T13:50:57.172Z,21.90
2023-05-23T13:53:24.260Z,21.90
2023-05-23T13:55:51.304Z,21.90
2023-05-23T13:58:18.326Z,21.90
2023-05-23T14:00:45.307Z,21.90
2023-05-23T14:03:12.657Z,22.00
2023-05-23T14:05:39.708Z,22.00
2023-05-23T14:08:06.986Z,21.90
2023-05-23T14:10:33.923Z,21.90
2023-05-23T14:13:01.645Z,21.90
2023-05-23T14:15:28.486Z,21.90
2023-05-23T14:17:56.031Z,21.80
2023-05-23T14:20:23.614Z,21.80
2023-05-23T14:22:52.017Z,21.80
2023-05-23T14:25:19.371Z,21.70
2023-05-23T14:27:46.302Z,21.70
2023-05-23T14:30:13.476Z,21.70
2023-05-23T14:32:40.583Z,21.70
2023-05-23T14:35:09.645Z,21.70
2023-05-23T14:37:37.031Z,21.60
2023-05-23T14:40:05.683Z,21.70
2023-05-23T14:42:32.929Z,21.60
2023-05-23T14:44:59.813Z,21.60
2023-05-23T14:47:26.825Z,21.50
2023-05-23T14:49:53.791Z,21.50
2023-05-23T14:52:21.031Z,21.60
2023-05-23T14:54:47.853Z,21.60
2023-05-23T14:57:14.825Z,21.70
2023-05-23T14:59:41.730Z,21.70
2023-05-23T15:02:09.258Z,21.70
2023-05-23T15:04:38.664Z,21.70
2023-05-23T15:07:05.903Z,21.80
2023-05-23T15:09:32.826Z,21.80
2023-05-23T15:11:59.709Z,21.80
2023-05-23T15:14:29.818Z,21.80
2023-05-23T15:16:57.155Z,21.80
2023-05-23T15:19:24.111Z,21.70
2023-05-23T15:21:51.959Z,21.70
2023-05-23T15:24:19.448Z,21.70
2023-05-23T15:26:47.187Z,21.70
2023-05-23T15:29:15.575Z,21.70
2023-05-23T15:31:42.703Z,21.80
2023-05-23T15:34:09.701Z,21.80
2023-05-23T15:36:36.768Z,21.80
2023-05-23T15:39:07.179Z,21.80
2023-05-23T15:41:34.034Z,21.80
2023-05-23T15:44:00.891Z,21.90
2023-05-23T15:46:27.774Z,21.70
2023-05-23T15:49:02.984Z,21.70
2023-05-23T15:51:36.099Z,21.70
2023-05-23T15:54:03.435Z,21.70
2023-05-23T15:56:30.383Z,21.70
2023-05-23T15:58:57.313Z,21.70
2023-05-23T16:01:24.591Z,21.70
2023-05-23T16:03:51.671Z,21.80
2023-05-23T16:06:18.625Z,21.80
2023-05-23T16:08:45.673Z,21.80
2023-05-23T16:11:12.567Z,21.80
2023-05-23T16:13:39.407Z,21.70
2023-05-23T16:16:06.403Z,21.60
2023-05-23T16:18:34.103Z,21.60
2023-05-23T16:21:01.421Z,21.70
2023-05-23T16:23:28.249Z,21.70
2023-05-23T16:25:55.110Z,21.70
2023-05-23T16:28:22.138Z,21.70
2023-05-23T16:30:50.076Z,21.70
2023-05-23T16:33:16.919Z,21.60
2023-05-23T16:35:43.952Z,21.60
2023-05-23T16:38:10.992Z,21.60
2023-05-23T16:40:37.825Z,21.60
2023-05-23T16:43:04.694Z,21.60
2023-05-23T16:45:31.860Z,21.60
2023-05-23T16:48:00.891Z,21.70
2023-05-23T16:50:27.755Z,21.60
2023-05-23T16:52:55.528Z,21.60
2023-05-23T16:55:22.573Z,21.60
2023-05-23T16:57:49.389Z,22.90
2023-05-23T17:00:17.116Z,21.60
2023-05-23T17:02:44.125Z,21.70
2023-05-23T17:05:11.398Z,21.70
2023-05-23T17:07:38.273Z,21.70
2023-05-23T17:10:05.975Z,21.70
2023-05-23T17:12:32.831Z,21.70
2023-05-23T17:14:59.741Z,21.70
2023-05-23T17:17:26.582Z,21.60
2023-05-23T17:19:54.752Z,21.60
2023-05-23T17:22:21.628Z,21.60
2023-05-23T17:24:48.544Z,21.60
2023-05-23T17:27:15.458Z,21.50
2023-05-23T17:29:42.330Z,21.50
2023-05-23T17:32:09.285Z,21.50
2023-05-23T17:34:36.254Z,21.50
2023-05-23T17:37:03.118Z,21.50
2023-05-23T17:39:33.360Z,21.50
2023-05-23T17:42:01.083Z,21.50
2023-05-23T17:44:27.828Z,21.40
2023-05-23T17:46:54.734Z,21.40
2023-05-23T17:49:21.756Z,21.30
2023-05-23T17:51:48.581Z,21.30
2023-05-23T17:54:15.658Z,21.30
2023-05-23T17:56:43.290Z,21.30
2023-05-23T17:59:10.086Z,21.30
2023-05-23T18:01:36.917Z,21.20
2023-05-23T18:04:03.953Z,21.20
2023-05-23T18:06:31.168Z,21.20
2023-05-23T18:08:58.096Z,21.20
2023-05-23T18:11:26.606Z,21.20
2023-05-23T18:13:54.407Z,21.20
2023-05-23T18:16:21.753Z,21.30
2023-05-23T18:18:49.874Z,21.30
2023-05-23T18:21:18.236Z,21.20
2023-05-23T18:23:45.508Z,21.20
2023-05-23T18:26:12.566Z,21.10
2023-05-23T18:28:39.462Z,21.00
2023-05-23T18:31:06.247Z,21.00
2023-05-23T18:33:33.239Z,21.00
2023-05-23T18:36:00.179Z,21.00
2023-05-23T18:38:27.059Z,21.00
2023-05-23T18:40:53.971Z,21.00
2023-05-23T18:43:21.980Z,20.90
2023-05-23T18:45:48.993Z,20.80
2023-05-23T18:48:15.920Z,20.80
2023-05-23T18:50:42.950Z,20.70
2023-05-23T18:53:10.706Z,20.60
2023-05-23T18:55:37.587Z,20.60
2023-05-23T18:58:04.527Z,20.40
2023-05-23T19:00:31.618Z,20.40
2023-05-23T19:02:58.499Z,20.40
2023-05-23T19:05:27.222Z,20.40
2023-05-23T19:07:54.004Z,20.30
2023-05-23T19:10:21.065Z,20.30
2023-05-23T19:12:48.069Z,20.20
2023-05-23T19:15:15.022Z,20.20
2023-05-23T19:17:42.189Z,20.20
2023-05-23T19:20:09.712Z,20.20
2023-05-23T19:22:50.296Z,20.30
2023-05-23T19:25:18.517Z,20.20
2023-05-23T19:27:45.322Z,20.20
2023-05-23T19:30:12.423Z,20.20
2023-05-23T19:32:39.355Z,20.20
2023-05-23T19:35:06.674Z,20.20
2023-05-23T19:37:33.538Z,20.10
2023-05-23T19:40:01.817Z,20.10
2023-05-23T19:42:28.719Z,20.00
2023-05-23T19:44:55.623Z,19.90
2023-05-23T19:47:22.683Z,19.90
2023-05-23T19:49:49.508Z,19.90
2023-05-23T19:52:16.369Z,19.90
2023-05-23T19:54:43.202Z,19.90
2023-05-23T19:57:10.263Z,19.90
2023-05-23T19:59:37.056Z,19.80
2023-05-23T20:02:03.959Z,19.80
2023-05-23T20:04:30.782Z,19.80
2023-05-23T20:06:57.824Z,19.80
2023-05-23T20:09:24.684Z,19.80
2023-05-23T20:11:51.698Z,19.80
2023-05-23T20:14:18.637Z,19.70
2023-05-23T20:16:46.112Z,19.70
2023-05-23T20:19:13.107Z,19.70
2023-05-23T20:21:39.956Z,19.70
2023-05-23T20:24:06.887Z,19.70
2023-05-23T20:26:33.724Z,19.70
2023-05-23T20:29:01.109Z,19.60
2023-05-23T20:31:28.048Z,19.70
2023-05-23T20:33:54.940Z,19.60
2023-05-23T20:36:23.514Z,19.60
2023-05-23T20:38:50.633Z,19.60
2023-05-23T20:41:17.640Z,19.50
2023-05-23T20:43:46.267Z,19.50
2023-05-23T20:46:16.272Z,19.50
2023-05-23T20:48:43.122Z,19.40
2023-05-23T20:51:09.974Z,19.40
2023-05-23T20:53:36.899Z,19.40
2023-05-23T20:56:04.046Z,19.40
2023-05-23T20:58:30.895Z,19.40
2023-05-23T21:00:58.757Z,19.40
2023-05-23T21:03:25.872Z,19.40
2023-05-23T21:05:53.319Z,19.30
2023-05-23T21:08:21.171Z,19.30
2023-05-23T21:10:51.453Z,19.40
2023-05-23T21:13:19.306Z,19.40
2023-05-23T21:15:46.250Z,19.40
2023-05-23T21:18:13.021Z,19.40
2023-05-23T21:20:39.947Z,19.40
2023-05-23T21:23:07.109Z,19.30
2023-05-23T21:25:34.091Z,19.30
2023-05-23T21:28:01.241Z,19.20
2023-05-23T21:30:28.083Z,19.20
2023-05-23T21:32:55.083Z,19.10
2023-05-23T21:35:21.987Z,19.00
2023-05-23T21:37:48.789Z,19.10
2023-05-23T21:40:15.814Z,19.10
2023-05-23T21:42:42.603Z,19.10
2023-05-23T21:45:09.890Z,19.00
2023-05-23T21:47:37.144Z,19.00
2023-05-23T21:50:07.086Z,19.00
2023-05-23T21:52:33.919Z,19.10
2023-05-23T21:55:00.895Z,19.00
2023-05-23T21:57:27.842Z,19.00
2023-05-23T21:59:54.682Z,19.00
2023-05-23T22:02:21.548Z,19.00
2023-05-23T22:04:48.372Z,18.90
2023-05-23T22:07:15.181Z,18.80
2023-05-23T22:09:42.042Z,18.80
2023-05-23T22:12:09.042Z,18.80
2023-05-23T22:14:35.917Z,18.70
2023-05-23T22:17:03.575Z,18.70
2023-05-23T22:19:30.596Z,18.60
2023-05-23T22:21:57.510Z,18.60
2023-05-23T22:24:25.291Z,18.60
2023-05-23T22:26:52.572Z,18.60
2023-05-23T22:29:19.376Z,18.70
2023-05-23T22:31:47.556Z,18.60
2023-05-23T22:34:14.432Z,18.60
2023-05-23T22:36:41.448Z,18.60
2023-05-23T22:39:09.522Z,18.60
2023-05-23T22:41:36.714Z,18.60
2023-05-23T22:44:04.150Z,18.50
2023-05-23T22:46:31.406Z,18.50
2023-05-23T22:48:58.344Z,18.40
2023-05-23T22:51:25.180Z,18.40
2023-05-23T22:53:52.930Z,18.40
2023-05-23T22:56:20.023Z,18.40
2023-05-23T22:58:46.954Z,18.40
2023-05-23T23:01:13.812Z,18.30
2023-05-23T23:03:40.755Z,18.30
2023-05-23T23:06:09.398Z,18.20
2023-05-23T23:08:37.513Z,18.20
2023-05-23T23:11:04.818Z,18.10
2023-05-23T23:13:31.677Z,18.10
2023-05-23T23:15:58.761Z,18.00
2023-05-23T23:18:26.976Z,18.00
2023-05-23T23:20:54.572Z,18.00
2023-05-23T23:23:21.413Z,18.00
2023-05-23T23:25:50.201Z,18.00
2023-05-23T23:28:17.761Z,17.90
2023-05-23T23:30:44.867Z,18.00
2023-05-23T23:33:12.131Z,18.00
2023-05-23T23:35:39.394Z,18.00
2023-05-23T23:38:06.883Z,18.00
2023-05-23T23:40:34.369Z,17.90
2023-05-23T23:43:01.239Z,17.90
2023-05-23T23:45:28.084Z,17.90
2023-05-23T23:47:54.995Z,17.90
2023-05-23T23:50:21.987Z,18.00
2023-05-23T23:52:48.856Z,17.90
2023-05-23T23:55:15.700Z,17.90
2023-05-23T23:57:42.503Z,17.80
